Time;durP1;ratioP1;P1;durP2;ratioP2;P2;SDS_P1;SDS_P2;PMS_P1;PMS_P2;Temp;Humidity;BMP_temperature;BMP_pressure;BME280_temperature;BME280_humidity;BME280_pressure;Samples;Min_cycle;Max_cycle;Signal;HPM_P1;HPM_P2
2024/04/21 15:44:01;;;;;;;3.43;2.40;;;;;;;6.74;nan;101648.47;5919854;21;20960;31
2024/04/21 15:47:15;;;;;;;3.78;2.30;;;;;;;6.78;nan;101650.25;5148873;27;20012;-92
2024/04/21 15:49:45;;;;;;;2.90;1.93;;;;;;;6.91;nan;101643.41;5178411;27;20004;-91
2024/04/21 16:31:22;;;;;;;3.37;1.60;;;;;;;7.36;nan;101642.06;5363731;21;20021;-93
2024/04/21 16:45:28;;;;;;;2.37;1.50;;;;;;;6.95;nan;101653.06;5778775;22;20012;-90
2024/04/21 16:48:01;;;;;;;2.37;1.27;;;;;;;6.85;nan;101657.34;5130008;27;20004;-90
2024/04/21 16:50:29;;;;;;;2.70;1.40;;;;;;;6.72;nan;101663.31;5188598;27;20343;-89
2024/04/21 16:52:57;;;;;;;2.40;1.40;;;;;;;6.68;nan;101653.66;5208573;27;20635;-92
2024/04/21 16:55:26;;;;;;;2.90;1.40;;;;;;;6.56;nan;101659.66;5206171;27;20008;-92
2024/04/21 16:57:55;;;;;;;1.70;1.30;;;;;;;6.47;nan;101662.13;5189924;27;20092;-91
2024/04/21 17:00:23;;;;;;;1.63;1.27;;;;;;;6.48;nan;101656.94;5150531;27;20055;-90
2024/04/21 17:02:51;;;;;;;3.77;1.50;;;;;;;6.41;nan;101655.09;5190061;27;20449;-91
2024/04/21 17:05:19;;;;;;;2.10;1.27;;;;;;;6.24;nan;101664.50;5205899;27;20007;-91
2024/04/21 17:08:14;;;;;;;2.67;1.20;;;;;;;6.26;nan;101667.13;5179047;27;20000;-92
2024/04/21 17:11:05;;;;;;;2.37;1.50;;;;;;;5.94;nan;101670.19;5229131;27;20008;-92
2024/04/21 17:13:56;;;;;;;1.63;1.13;;;;;;;5.90;nan;101670.97;5234455;27;20611;-88
2024/04/21 17:16:26;;;;;;;2.83;1.30;;;;;;;5.83;nan;101674.34;5245979;27;20003;-91
2024/04/21 17:18:54;;;;;;;1.50;0.97;;;;;;;5.80;nan;101679.53;5208248;27;20031;-89
2024/04/21 17:21:21;;;;;;;2.77;1.40;;;;;;;5.62;nan;101680.13;5182243;27;20035;-89
2024/04/21 17:23:52;;;;;;;1.87;1.30;;;;;;;5.62;nan;101681.00;5205484;27;20049;-90
2024/04/21 17:26:20;;;;;;;2.20;1.20;;;;;;;5.59;nan;101682.72;5216836;27;20053;-92
2024/04/21 17:28:47;;;;;;;3.60;1.43;;;;;;;5.50;nan;101682.56;5217571;27;20043;-92
2024/04/21 17:31:15;;;;;;;2.63;1.40;;;;;;;5.44;nan;101690.31;5188477;27;20007;-92
2024/04/21 17:33:42;;;;;;;3.50;1.43;;;;;;;5.27;nan;101690.91;5215659;27;20007;-92
2024/04/21 17:36:09;;;;;;;2.53;1.50;;;;;;;5.23;nan;101693.47;5215552;27;20007;-92
2024/04/21 17:38:37;;;;;;;3.43;1.73;;;;;;;5.18;nan;101692.50;5187680;27;20015;-90
2024/04/21 17:41:04;;;;;;;2.60;1.40;;;;;;;5.15;nan;101695.06;5188514;27;20007;-91
2024/04/21 17:43:32;;;;;;;2.13;1.47;;;;;;;5.13;nan;101699.38;5189046;27;20007;-91
2024/04/21 17:45:59;;;;;;;3.43;1.57;;;;;;;5.04;nan;101716.72;5162594;27;20005;-91
2024/04/21 17:48:27;;;;;;;2.20;1.27;;;;;;;4.95;nan;101706.03;5238038;27;20007;-90
2024/04/21 17:50:57;;;;;;;2.47;1.33;;;;;;;4.98;nan;101706.09;5225225;27;19998;-91
2024/04/21 17:53:25;;;;;;;2.27;1.37;;;;;;;4.86;nan;101705.84;5156726;27;20019;-89
2024/04/21 17:55:52;;;;;;;5.20;2.47;;;;;;;4.83;nan;101704.94;5214173;27;20078;-90
2024/04/21 17:58:20;;;;;;;2.73;1.40;;;;;;;4.90;nan;101714.66;5235113;27;20330;-90
2024/04/21 18:00:47;;;;;;;2.23;1.30;;;;;;;4.74;nan;101713.47;5154860;27;20003;-89
2024/04/21 18:03:15;;;;;;;1.90;1.20;;;;;;;4.71;nan;101721.28;5155016;27;20043;-90
2024/04/21 18:05:45;;;;;;;3.50;1.40;;;;;;;4.67;nan;101730.78;5156830;27;20010;-91
2024/04/21 18:08:12;;;;;;;1.93;1.37;;;;;;;4.57;nan;101721.00;5238383;27;20026;-91
2024/04/21 18:10:40;;;;;;;4.13;1.40;;;;;;;4.57;nan;101730.56;5211164;27;20336;-91
2024/04/21 18:13:07;;;;;;;2.23;1.30;;;;;;;4.48;nan;101728.66;5223637;27;20026;-91
2024/04/21 18:15:35;;;;;;;3.53;1.50;;;;;;;4.33;nan;101731.81;5185997;27;20011;-90
2024/04/21 18:18:02;;;;;;;3.07;1.60;;;;;;;4.28;nan;101733.41;5214528;27;20007;-90
2024/04/21 18:20:29;;;;;;;3.13;1.40;;;;;;;4.20;nan;101737.59;5154534;27;20048;-91
2024/04/21 18:22:57;;;;;;;2.23;1.30;;;;;;;4.13;nan;101740.94;5169671;27;20003;-91
2024/04/21 18:25:25;;;;;;;4.80;1.87;;;;;;;4.05;nan;101747.72;5182642;27;20010;-92
2024/04/21 18:27:53;;;;;;;2.50;1.70;;;;;;;3.94;nan;101744.84;5179936;27;20051;-90
2024/04/21 18:30:21;;;;;;;3.43;1.73;;;;;;;3.88;nan;101740.38;5182144;27;20017;-91
2024/04/21 18:32:48;;;;;;;3.23;1.27;;;;;;;3.87;nan;101748.19;5203580;27;20367;-90
2024/04/21 18:35:16;;;;;;;2.20;1.20;;;;;;;3.83;nan;101749.81;5156626;27;19996;-89
2024/04/21 18:37:43;;;;;;;1.93;1.27;;;;;;;3.73;nan;101749.56;5149452;27;20080;-92
2024/04/21 18:40:11;;;;;;;3.07;1.30;;;;;;;3.63;nan;101751.94;5243308;27;20035;-92
2024/04/21 18:42:38;;;;;;;2.80;1.30;;;;;;;3.57;nan;101756.13;5155468;27;20039;-91
2024/04/21 18:45:07;;;;;;;4.47;1.77;;;;;;;3.51;nan;101759.47;5212880;27;20000;-92
2024/04/21 18:47:34;;;;;;;2.80;1.47;;;;;;;3.40;nan;101755.69;5219381;27;20467;-86
2024/04/21 18:50:01;;;;;;;1.53;1.20;;;;;;;3.41;nan;101761.81;5235501;27;20075;-91
2024/04/21 18:52:29;;;;;;;2.23;1.47;;;;;;;3.32;nan;101762.44;5185102;27;20019;-89
2024/04/21 18:54:58;;;;;;;3.73;1.67;;;;;;;3.31;nan;101761.56;5223579;27;20000;-91
2024/04/21 18:57:26;;;;;;;2.93;1.20;;;;;;;3.29;nan;101763.25;5232005;27;20003;-91
2024/04/21 18:59:54;;;;;;;2.10;1.60;;;;;;;3.19;nan;101761.22;5183561;27;20020;-90
2024/04/21 19:02:21;;;;;;;1.97;1.30;;;;;;;3.19;nan;101769.03;5210139;27;20018;-91
2024/04/21 19:04:49;;;;;;;1.53;1.20;;;;;;;3.14;nan;101760.22;5186405;27;20014;-91
2024/04/21 19:07:16;;;;;;;1.67;1.33;;;;;;;3.08;nan;101773.09;5214057;27;20004;-89
2024/04/21 19:09:44;;;;;;;2.70;1.33;;;;;;;3.05;nan;101773.03;5230433;27;20002;-89
2024/04/21 19:12:13;;;;;;;3.77;1.30;;;;;;;3.07;nan;101771.34;5193510;27;20001;-90
2024/04/21 19:14:40;;;;;;;2.50;1.23;;;;;;;2.97;nan;101777.16;5219969;27;20359;-89
2024/04/21 19:17:08;;;;;;;3.00;1.60;;;;;;;2.90;nan;101775.19;5208503;27;20094;-90
2024/04/21 19:19:36;;;;;;;2.27;1.30;;;;;;;2.78;nan;101788.78;5153945;27;20018;-90
2024/04/21 19:22:07;;;;;;;3.60;1.40;;;;;;;2.76;nan;101780.00;5193860;27;20003;-90
2024/04/21 19:24:35;;;;;;;2.17;1.10;;;;;;;2.71;nan;101792.94;5212215;27;20013;-91
2024/04/21 19:27:02;;;;;;;2.57;1.20;;;;;;;2.57;nan;101794.25;5215685;27;20003;-91
2024/04/21 19:29:30;;;;;;;1.63;1.10;;;;;;;2.53;nan;101793.28;5213842;27;20003;-90
2024/04/21 19:31:57;;;;;;;2.10;1.60;;;;;;;2.59;nan;101792.56;5214030;27;20044;-91
2024/04/21 19:34:24;;;;;;;1.70;1.23;;;;;;;2.31;nan;101793.44;5239944;27;19999;-91
2024/04/21 19:36:52;;;;;;;1.57;1.07;;;;;;;2.31;nan;101800.38;5211282;27;20011;-90
2024/04/21 19:39:19;;;;;;;2.13;1.30;;;;;;;2.22;nan;101791.44;5186062;27;19999;-92
2024/04/21 19:41:46;;;;;;;2.63;1.30;;;;;;;2.25;nan;101801.94;5237539;27;20014;-90
2024/04/21 19:44:14;;;;;;;1.87;1.20;;;;;;;2.19;nan;101800.91;5240619;27;20003;-90
2024/04/21 19:46:42;;;;;;;1.83;1.07;;;;;;;2.13;nan;101798.09;5234165;27;20004;-92
2024/04/21 19:49:09;;;;;;;2.57;1.50;;;;;;;2.01;nan;101797.66;5154594;27;19999;-90
2024/04/21 19:51:37;;;;;;;2.97;1.50;;;;;;;1.99;nan;101795.03;5180651;27;20028;-90
2024/04/21 19:54:07;;;;;;;1.80;1.30;;;;;;;2.00;nan;101801.13;5185371;27;20009;-90
2024/04/21 19:56:42;;;;;;;2.77;1.30;;;;;;;1.81;nan;101804.84;5216550;27;20002;-90
2024/04/21 19:59:09;;;;;;;1.63;1.40;;;;;;;1.72;nan;101802.81;5185970;27;20030;-90
2024/04/21 20:01:37;;;;;;;3.47;1.40;;;;;;;1.71;nan;101803.66;5185834;27;20003;-91
2024/04/21 20:04:04;;;;;;;2.40;1.40;;;;;;;1.77;nan;101802.97;5213125;27;20148;-90
2024/04/21 20:06:32;;;;;;;2.83;1.20;;;;;;;1.73;nan;101794.16;5153257;27;20004;-90
2024/04/21 20:08:59;;;;;;;2.23;1.10;;;;;;;1.53;nan;101798.72;5179863;27;20000;-90
2024/04/21 20:11:26;;;;;;;2.63;1.20;;;;;;;1.41;nan;101793.94;5158189;27;22039;-90
2024/04/21 20:13:54;;;;;;;1.33;0.97;;;;;;;1.47;nan;101798.50;5221044;27;20022;-91
2024/04/21 20:19:08;;;;;;;4.90;1.73;;;;;;;1.34;nan;101802.38;5184868;27;20046;-91
2024/04/21 20:21:35;;;;;;;1.77;1.07;;;;;;;1.35;nan;101805.88;5212116;27;20014;-91
2024/04/21 20:24:03;;;;;;;5.20;1.50;;;;;;;1.13;nan;101807.72;5181434;27;19999;-92
2024/04/21 20:26:31;;;;;;;2.23;1.10;;;;;;;1.12;nan;101811.16;5207986;27;20008;-92
2024/04/21 20:28:59;;;;;;;1.50;1.20;;;;;;;1.01;nan;101804.69;5216336;27;19995;-92
2024/04/21 20:31:26;;;;;;;1.70;1.30;;;;;;;0.95;nan;101817.44;5188869;27;20010;-91
2024/04/21 20:33:54;;;;;;;2.10;1.10;;;;;;;0.98;nan;101811.47;5187540;27;20009;-91
2024/04/21 20:36:22;;;;;;;1.67;1.50;;;;;;;0.87;nan;101826.69;5234524;27;20043;-90
2024/04/21 20:38:52;;;;;;;1.87;1.13;;;;;;;0.77;nan;101817.66;5177748;27;20003;-90
2024/04/21 20:41:21;;;;;;;1.80;1.13;;;;;;;0.82;nan;101820.41;5186409;27;20034;-90
2024/04/21 20:43:49;;;;;;;3.30;1.40;;;;;;;0.76;nan;101820.19;5216209;27;20018;-90
2024/04/21 20:46:18;;;;;;;1.67;1.40;;;;;;;0.69;nan;101815.59;5240967;27;20007;-90
2024/04/21 20:48:46;;;;;;;2.67;1.40;;;;;;;0.53;nan;101816.72;5180092;27;20007;-90
2024/04/21 20:51:14;;;;;;;2.13;1.07;;;;;;;0.51;nan;101827.06;5152647;27;20372;-90
2024/04/21 20:53:42;;;;;;;2.70;1.60;;;;;;;0.37;nan;101823.03;5130404;27;20018;-90
2024/04/21 20:56:09;;;;;;;2.07;1.40;;;;;;;0.49;nan;101822.59;5193546;27;20023;-91
2024/04/21 20:58:37;;;;;;;1.90;1.20;;;;;;;0.36;nan;101822.97;5183979;27;20046;-91
2024/04/21 21:01:14;;;;;;;2.20;1.20;;;;;;;0.38;nan;101823.91;5199491;27;20597;-89
2024/04/21 21:03:42;;;;;;;2.40;1.43;;;;;;;0.34;nan;101828.13;5192910;27;20034;-89
2024/04/21 21:06:09;;;;;;;1.87;1.10;;;;;;;0.30;nan;101826.19;5159753;27;20012;-89
2024/04/21 21:08:36;;;;;;;2.90;1.20;;;;;;;0.30;nan;101821.00;5151349;27;20015;-88
2024/04/21 21:11:04;;;;;;;2.73;1.47;;;;;;;0.26;nan;101832.13;5184692;27;20008;-89
2024/04/21 21:13:31;;;;;;;2.37;1.37;;;;;;;0.27;nan;101836.50;5148690;27;20011;-88
2024/04/21 21:16:00;;;;;;;1.30;0.93;;;;;;;0.23;nan;101835.47;5193747;27;20470;-87
2024/04/21 21:18:28;;;;;;;2.17;1.50;;;;;;;0.12;nan;101841.94;5186822;27;20008;-88
2024/04/21 21:20:55;;;;;;;2.07;1.50;;;;;;;0.15;nan;101846.38;5236896;27;19995;-88
2024/04/21 21:23:23;;;;;;;2.27;1.00;;;;;;;0.14;nan;101834.22;5169783;27;20000;-87
2024/04/21 21:25:51;;;;;;;2.43;1.80;;;;;;;0.08;nan;101841.75;5191543;27;20012;-87
2024/04/21 21:28:25;;;;;;;2.43;1.30;;;;;;;0.00;nan;101846.66;5177222;27;20420;-88
2024/04/21 21:30:53;;;;;;;2.27;1.30;;;;;;;-0.08;nan;101848.94;5169698;27;20007;-87
2024/04/21 21:33:20;;;;;;;3.53;1.10;;;;;;;0.06;nan;101851.19;5206132;27;20008;-87
2024/04/21 21:35:57;;;;;;;2.10;1.13;;;;;;;0.13;nan;101858.41;5152350;27;20008;-88
2024/04/21 21:38:25;;;;;;;3.70;1.40;;;;;;;0.07;nan;101852.97;5140127;27;20000;-88
2024/04/21 21:41:02;;;;;;;5.57;1.57;;;;;;;0.07;nan;101858.16;5250714;27;20007;-87
2024/04/21 21:43:30;;;;;;;2.95;1.38;;;;;;;-0.06;nan;101852.47;5203061;27;20022;-88
2024/04/21 21:45:57;;;;;;;2.50;1.43;;;;;;;-0.15;nan;101848.59;5252207;27;20011;-88
2024/04/21 21:48:25;;;;;;;2.83;1.30;;;;;;;-0.19;nan;101857.97;5195641;27;20003;-87
2024/04/21 21:50:52;;;;;;;2.60;1.50;;;;;;;-0.23;nan;101853.47;5186445;27;20007;-87
2024/04/21 21:53:20;;;;;;;2.87;1.30;;;;;;;-0.22;nan;101860.44;5184262;27;20008;-88
2024/04/21 21:55:47;;;;;;;2.20;1.20;;;;;;;-0.25;nan;101859.41;5218478;27;20008;-87
2024/04/21 21:58:15;;;;;;;2.93;1.50;;;;;;;-0.28;nan;101857.56;5169724;27;20432;-88
2024/04/21 22:00:42;;;;;;;2.53;1.53;;;;;;;-0.19;nan;101855.38;5200097;27;20008;-88
2024/04/21 22:03:10;;;;;;;2.67;1.40;;;;;;;-0.18;nan;101851.06;5155745;27;20004;-87
2024/04/21 22:05:38;;;;;;;2.07;1.50;;;;;;;-0.26;nan;101855.91;5208257;27;20007;-87
2024/04/21 22:08:06;;;;;;;1.80;1.10;;;;;;;-0.23;nan;101847.41;5210425;27;20003;-87
2024/04/21 22:10:33;;;;;;;2.73;1.40;;;;;;;-0.33;nan;101857.41;5182779;27;20019;-87
2024/04/21 22:13:00;;;;;;;3.00;1.23;;;;;;;-0.43;nan;101862.09;5212058;27;20003;-87
2024/04/21 22:15:28;;;;;;;2.43;1.30;;;;;;;-0.42;nan;101857.00;5198036;27;20003;-87
2024/04/21 22:17:55;;;;;;;3.70;1.53;;;;;;;-0.37;nan;101859.78;5200349;27;20017;-86
2024/04/21 22:20:23;;;;;;;2.13;1.20;;;;;;;-0.41;nan;101856.19;5218614;27;20019;-87
2024/04/21 22:22:50;;;;;;;2.40;1.30;;;;;;;-0.52;nan;101856.53;5221874;27;20003;-87
2024/04/21 22:25:18;;;;;;;1.87;1.40;;;;;;;-0.49;nan;101848.88;5201613;27;20007;-87
2024/04/21 22:27:46;;;;;;;2.30;1.20;;;;;;;-0.44;nan;101852.56;5153505;27;20014;-87
2024/04/21 22:30:13;;;;;;;3.70;1.43;;;;;;;-0.47;nan;101853.31;5232473;27;20361;-87
2024/04/21 22:32:42;;;;;;;3.87;2.27;;;;;;;-0.45;nan;101853.38;5251472;27;20031;-87
2024/04/21 22:35:10;;;;;;;2.23;1.57;;;;;;;-0.47;nan;101855.03;5197485;27;20012;-87
2024/04/21 22:37:37;;;;;;;3.83;1.70;;;;;;;-0.45;nan;101859.44;5240042;27;20007;-86
2024/04/21 22:40:05;;;;;;;1.90;1.20;;;;;;;-0.56;nan;101858.09;5208698;27;20623;-87
2024/04/21 22:42:32;;;;;;;5.23;1.50;;;;;;;-0.55;nan;101853.81;5218973;27;19999;-87
2024/04/21 22:45:00;;;;;;;2.80;1.30;;;;;;;-0.73;nan;101859.06;5205486;27;20007;-87
2024/04/21 22:47:28;;;;;;;2.23;1.60;;;;;;;-0.55;nan;101853.81;5183457;27;20023;-87
2024/04/21 22:49:56;;;;;;;2.40;1.37;;;;;;;-0.64;nan;101857.78;5188072;27;20425;-88
2024/04/21 22:52:23;;;;;;;2.93;1.50;;;;;;;-0.68;nan;101855.84;5180707;27;20380;-87
2024/04/21 22:54:50;;;;;;;1.93;1.33;;;;;;;-0.65;nan;101855.13;5221514;27;20056;-88
2024/04/21 22:57:18;;;;;;;1.80;1.33;;;;;;;-0.67;nan;101852.47;5179710;27;20004;-88
2024/04/21 22:59:45;;;;;;;3.60;1.50;;;;;;;-0.62;nan;101844.84;5195034;27;20737;-87
2024/04/21 23:02:12;;;;;;;2.37;1.70;;;;;;;-0.71;nan;101849.63;5203727;27;20017;-87
2024/04/21 23:04:40;;;;;;;3.03;1.60;;;;;;;-0.67;nan;101834.28;5210240;27;20022;-87
2024/04/21 23:07:07;;;;;;;3.23;1.47;;;;;;;-0.79;nan;101836.31;5195931;27;20015;-88
2024/04/21 23:09:34;;;;;;;2.87;1.57;;;;;;;-0.73;nan;101836.59;5262069;27;19995;-87
2024/04/21 23:12:04;;;;;;;2.20;1.40;;;;;;;-0.79;nan;101841.50;5209227;27;19995;-88
2024/04/21 23:14:32;;;;;;;2.10;1.53;;;;;;;-0.80;nan;101847.53;5257003;27;20012;-87
2024/04/21 23:16:59;;;;;;;3.23;1.70;;;;;;;-0.78;nan;101840.69;5178966;27;20008;-88
2024/04/21 23:19:27;;;;;;;2.57;1.60;;;;;;;-0.89;nan;101847.13;5236705;27;20003;-88
2024/04/21 23:21:54;;;;;;;2.77;1.57;;;;;;;-0.90;nan;101837.56;5200731;27;20018;-88
2024/04/21 23:24:21;;;;;;;4.17;1.73;;;;;;;-0.88;nan;101842.00;5207596;27;19991;-88
2024/04/21 23:26:48;;;;;;;5.50;1.73;;;;;;;-1.02;nan;101840.47;5217942;27;20079;-88
2024/04/21 23:29:15;;;;;;;2.77;1.53;;;;;;;-1.04;nan;101836.94;5221748;27;20592;-88
2024/04/21 23:31:45;;;;;;;2.67;1.93;;;;;;;-1.19;nan;101833.63;5224050;27;20014;-88
2024/04/21 23:34:13;;;;;;;2.73;1.63;;;;;;;-1.13;nan;101834.81;5183081;27;20078;-88
2024/04/21 23:36:40;;;;;;;3.50;1.57;;;;;;;-1.14;nan;101834.75;5207200;27;20019;-88
2024/04/21 23:39:07;;;;;;;3.37;1.70;;;;;;;-1.25;nan;101830.78;5365014;21;20041;-87
2024/04/21 23:41:34;;;;;;;4.13;1.83;;;;;;;-1.28;nan;101841.00;5210146;27;20002;-87
2024/04/21 23:44:01;;;;;;;3.33;1.70;;;;;;;-1.29;nan;101832.34;5206404;27;20008;-87
2024/04/21 23:46:29;;;;;;;2.60;1.70;;;;;;;-1.26;nan;101828.97;5129794;27;20000;-87
2024/04/21 23:48:56;;;;;;;5.63;1.70;;;;;;;-1.28;nan;101836.69;5179740;27;20269;-88
2024/04/21 23:51:23;;;;;;;2.43;1.77;;;;;;;-1.18;nan;101840.59;5161883;27;20462;-87
2024/04/21 23:53:50;;;;;;;3.87;1.53;;;;;;;-1.15;nan;101836.47;5165248;27;20021;-87
2024/04/21 23:56:20;;;;;;;2.07;1.60;;;;;;;-1.18;nan;101833.75;5139488;27;20016;-88
2024/04/21 23:58:48;;;;;;;4.73;1.77;;;;;;;-1.18;nan;101836.34;5151359;27;20376;-88
